createdAt,value
2017-12-30T00:00:00.026Z,62.90
2017-12-30T00:02:03.510Z,63.00
2017-12-30T00:04:06.976Z,63.30
2017-12-30T00:06:10.453Z,63.00
2017-12-30T00:08:13.871Z,63.00
2017-12-30T00:10:18.946Z,62.60
2017-12-30T00:12:22.424Z,62.00
2017-12-30T00:14:27.458Z,61.30
2017-12-30T00:16:31.687Z,60.80
2017-12-30T00:18:35.094Z,61.00
2017-12-30T00:20:38.525Z,60.60
2017-12-30T00:22:42.747Z,60.70
2017-12-30T00:24:46.569Z,59.80
2017-12-30T00:26:50.760Z,60.20
2017-12-30T00:28:54.218Z,61.30
2017-12-30T00:30:57.623Z,60.60
2017-12-30T00:33:01.123Z,60.80
2017-12-30T00:35:04.561Z,60.70
2017-12-30T00:37:08.187Z,60.20
2017-12-30T00:39:11.712Z,60.50
2017-12-30T00:41:15.206Z,60.50
2017-12-30T00:43:18.655Z,60.00
2017-12-30T00:45:22.115Z,59.80
2017-12-30T00:47:25.536Z,60.20
2017-12-30T00:49:30.802Z,58.60
2017-12-30T00:51:41.728Z,58.90
2017-12-30T00:53:45.667Z,58.90
2017-12-30T00:55:49.658Z,59.00
2017-12-30T00:57:53.940Z,57.90
2017-12-30T00:59:57.400Z,57.80
2017-12-30T01:02:00.932Z,58.30
2017-12-30T01:04:05.146Z,57.60
2017-12-30T01:06:09.446Z,58.60
2017-12-30T01:08:13.758Z,58.10
2017-12-30T01:10:18.019Z,58.10
2017-12-30T01:12:21.434Z,58.20
2017-12-30T01:14:24.877Z,57.70
2017-12-30T01:16:29.619Z,58.20
2017-12-30T01:18:33.059Z,57.90
2017-12-30T01:20:36.554Z,58.50
2017-12-30T01:22:39.973Z,58.70
2017-12-30T01:24:44.178Z,59.20
2017-12-30T01:26:47.616Z,59.30
2017-12-30T01:28:51.118Z,58.90
2017-12-30T01:30:54.583Z,58.00
2017-12-30T01:32:58.781Z,57.90
2017-12-30T01:35:02.174Z,58.30
2017-12-30T01:37:05.614Z,57.30
2017-12-30T01:39:09.049Z,57.40
2017-12-30T01:41:12.517Z,56.40
2017-12-30T01:43:15.949Z,56.50
2017-12-30T01:45:19.393Z,57.80
2017-12-30T01:47:22.836Z,57.40
2017-12-30T01:49:26.248Z,57.60
2017-12-30T01:51:29.695Z,57.40
2017-12-30T01:53:33.117Z,57.40
2017-12-30T01:55:36.532Z,56.90
2017-12-30T01:57:39.984Z,56.90
2017-12-30T01:59:43.389Z,57.60
2017-12-30T02:01:46.844Z,56.20
2017-12-30T02:03:51.469Z,57.10
2017-12-30T02:05:54.916Z,57.20
2017-12-30T02:07:58.374Z,56.60
2017-12-30T02:10:01.804Z,56.70
2017-12-30T02:12:06.019Z,56.50
2017-12-30T02:14:10.946Z,56.70
2017-12-30T02:16:14.993Z,56.10
2017-12-30T02:18:18.499Z,57.80
2017-12-30T02:20:21.935Z,56.50
2017-12-30T02:22:26.488Z,56.90
2017-12-30T02:24:30.019Z,56.90
2017-12-30T02:26:33.477Z,57.30
2017-12-30T02:28:36.942Z,57.60
2017-12-30T02:30:41.793Z,58.50
2017-12-30T02:32:45.230Z,57.60
2017-12-30T02:34:48.745Z,56.70
2017-12-30T02:36:52.927Z,57.80
2017-12-30T02:38:56.687Z,57.70
2017-12-30T02:41:00.126Z,57.90
2017-12-30T02:43:03.569Z,57.00
2017-12-30T02:45:07.036Z,56.80
2017-12-30T02:47:10.480Z,58.10
2017-12-30T02:49:13.985Z,56.40
2017-12-30T02:51:18.290Z,56.90
2017-12-30T02:53:21.773Z,56.80
2017-12-30T02:55:25.204Z,57.50
2017-12-30T02:57:29.425Z,57.50
2017-12-30T02:59:33.227Z,57.90
2017-12-30T03:01:36.674Z,58.30
2017-12-30T03:03:40.169Z,58.90
2017-12-30T03:05:43.613Z,58.00
2017-12-30T03:07:47.801Z,58.50
2017-12-30T03:09:51.273Z,58.50
2017-12-30T03:11:54.716Z,57.50
2017-12-30T03:13:58.177Z,58.40
2017-12-30T03:16:01.629Z,58.10
2017-12-30T03:18:05.801Z,58.00
2017-12-30T03:20:09.298Z,57.80
2017-12-30T03:22:12.739Z,57.70
2017-12-30T03:24:16.239Z,58.00
2017-12-30T03:26:19.695Z,58.00
2017-12-30T03:28:23.103Z,57.20
2017-12-30T03:30:27.335Z,57.30
2017-12-30T03:32:30.780Z,58.10
2017-12-30T03:34:34.227Z,57.50
2017-12-30T03:36:37.684Z,57.40
2017-12-30T03:38:41.095Z,57.30
2017-12-30T03:40:45.322Z,57.40
2017-12-30T03:42:48.765Z,57.00
2017-12-30T03:44:52.179Z,56.60
2017-12-30T03:46:55.628Z,57.00
2017-12-30T03:48:59.076Z,57.00
2017-12-30T03:51:03.251Z,56.50
2017-12-30T03:53:06.737Z,56.70
2017-12-30T03:55:10.163Z,56.20
2017-12-30T03:57:13.633Z,56.00
2017-12-30T03:59:17.086Z,56.00
2017-12-30T04:01:20.525Z,57.00
2017-12-30T04:03:24.806Z,55.60
2017-12-30T04:05:28.351Z,55.10
2017-12-30T04:07:31.817Z,55.30
2017-12-30T04:09:35.276Z,55.50
2017-12-30T04:11:39.809Z,56.20
2017-12-30T04:13:43.546Z,55.50
2017-12-30T04:15:47.977Z,54.90
2017-12-30T04:17:51.471Z,55.10
2017-12-30T04:19:55.679Z,54.90
2017-12-30T04:21:59.115Z,54.60
2017-12-30T04:24:02.854Z,54.40
2017-12-30T04:26:07.630Z,55.40
2017-12-30T04:28:12.341Z,55.10
2017-12-30T04:30:16.058Z,55.10
2017-12-30T04:32:19.945Z,54.70
2017-12-30T04:34:24.158Z,54.50
2017-12-30T04:36:28.354Z,54.80
2017-12-30T04:38:31.849Z,55.10
2017-12-30T04:40:35.347Z,55.50
2017-12-30T04:42:39.537Z,56.20
2017-12-30T04:44:43.808Z,55.50
2017-12-30T04:46:47.247Z,55.20
2017-12-30T04:48:50.756Z,56.20
2017-12-30T04:50:54.973Z,54.10
2017-12-30T04:52:59.183Z,54.60
2017-12-30T04:55:03.426Z,55.30
2017-12-30T04:57:06.849Z,55.30
2017-12-30T04:59:10.390Z,55.50
2017-12-30T05:01:14.239Z,56.00
2017-12-30T05:03:18.236Z,55.60
2017-12-30T05:05:21.729Z,57.70
2017-12-30T05:07:25.163Z,57.10
2017-12-30T05:09:28.672Z,57.10
2017-12-30T05:11:32.245Z,57.30
2017-12-30T05:13:35.707Z,56.90
2017-12-30T05:15:39.173Z,58.30
2017-12-30T05:17:43.383Z,58.20
2017-12-30T05:19:47.563Z,58.20
2017-12-30T05:21:51.020Z,58.20
2017-12-30T05:23:54.445Z,58.40
2017-12-30T05:25:57.920Z,58.40
2017-12-30T05:28:01.356Z,59.60
2017-12-30T05:30:04.802Z,59.20
2017-12-30T05:32:08.349Z,59.40
2017-12-30T05:34:12.533Z,59.50
2017-12-30T05:36:17.652Z,59.90
2017-12-30T05:38:21.079Z,60.50
2017-12-30T05:40:24.512Z,60.20
2017-12-30T05:42:27.981Z,59.60
2017-12-30T05:44:32.160Z,58.70
2017-12-30T05:46:35.637Z,58.70
2017-12-30T05:48:39.067Z,58.20
2017-12-30T05:50:42.495Z,59.30
2017-12-30T05:52:46.032Z,59.20
2017-12-30T05:54:50.237Z,60.00
2017-12-30T05:56:55.008Z,59.90
2017-12-30T05:58:59.275Z,59.60
2017-12-30T06:01:02.714Z,59.50
2017-12-30T06:03:07.385Z,58.40
2017-12-30T06:05:11.146Z,58.30
2017-12-30T06:07:14.601Z,58.70
2017-12-30T06:09:18.813Z,57.60
2017-12-30T06:11:22.260Z,57.80
2017-12-30T06:13:25.704Z,58.40
2017-12-30T06:15:29.122Z,58.40
2017-12-30T06:17:33.397Z,58.30
2017-12-30T06:19:36.857Z,57.60
2017-12-30T06:21:40.525Z,60.30
2017-12-30T06:23:44.746Z,60.10
2017-12-30T06:25:48.937Z,60.00
2017-12-30T06:27:52.355Z,60.00
2017-12-30T06:29:57.413Z,59.10
2017-12-30T06:32:01.069Z,59.10
2017-12-30T06:34:05.333Z,60.10
2017-12-30T06:36:08.762Z,59.90
2017-12-30T06:38:13.663Z,60.30
2017-12-30T06:40:17.122Z,60.20
2017-12-30T06:42:20.540Z,59.90
2017-12-30T06:44:24.064Z,60.00
2017-12-30T06:46:28.280Z,60.50
2017-12-30T06:48:32.509Z,60.40
2017-12-30T06:50:35.968Z,60.70
2017-12-30T06:52:39.398Z,60.00
2017-12-30T06:54:43.707Z,60.20
2017-12-30T06:56:47.095Z,60.40
2017-12-30T06:58:51.298Z,61.20
2017-12-30T07:00:54.743Z,61.30
2017-12-30T07:02:58.156Z,61.40
2017-12-30T07:05:01.625Z,61.40
2017-12-30T07:07:05.030Z,61.80
2017-12-30T07:09:08.445Z,62.10
2017-12-30T07:11:11.880Z,62.00
2017-12-30T07:13:16.082Z,61.70
2017-12-30T07:15:19.518Z,61.60
2017-12-30T07:17:22.931Z,62.90
2017-12-30T07:19:26.368Z,63.60
2017-12-30T07:21:30.571Z,63.60
2017-12-30T07:23:34.950Z,63.40
2017-12-30T07:25:38.385Z,63.50
2017-12-30T07:27:41.873Z,63.00
2017-12-30T07:29:46.056Z,62.60
2017-12-30T07:31:50.494Z,62.40
2017-12-30T07:33:53.898Z,63.00
2017-12-30T07:35:57.288Z,63.90
2017-12-30T07:38:00.756Z,64.20
2017-12-30T07:40:04.185Z,64.00
2017-12-30T07:42:07.618Z,64.10
2017-12-30T07:44:11.020Z,63.80
2017-12-30T07:46:14.463Z,64.20
2017-12-30T07:48:18.676Z,64.10
2017-12-30T07:50:22.854Z,64.40
2017-12-30T07:52:26.296Z,64.30
2017-12-30T07:54:29.715Z,64.50
2017-12-30T07:56:33.121Z,64.90
2017-12-30T07:58:36.562Z,64.90
2017-12-30T08:00:40.766Z,66.10
2017-12-30T08:02:44.242Z,66.20
2017-12-30T08:04:47.671Z,66.10
2017-12-30T08:06:51.078Z,65.80
2017-12-30T08:08:55.242Z,65.80
2017-12-30T08:10:58.669Z,65.60
2017-12-30T08:13:02.162Z,65.80
2017-12-30T08:15:06.323Z,66.10
2017-12-30T08:17:09.773Z,65.80
2017-12-30T08:19:15.359Z,65.00
2017-12-30T08:21:19.113Z,65.10
2017-12-30T08:23:22.577Z,66.10
2017-12-30T08:25:26.796Z,66.30
2017-12-30T08:27:31.012Z,66.00
2017-12-30T08:29:35.298Z,66.50
2017-12-30T08:31:38.749Z,66.40
2017-12-30T08:33:42.209Z,66.60
2017-12-30T08:35:46.440Z,66.20
2017-12-30T08:37:49.896Z,66.40
2017-12-30T08:39:54.156Z,66.10
2017-12-30T08:41:57.595Z,66.20
2017-12-30T08:44:01.056Z,65.90
2017-12-30T08:46:04.554Z,65.80
2017-12-30T08:48:08.081Z,66.20
2017-12-30T08:50:12.409Z,66.40
2017-12-30T08:52:16.639Z,65.60
2017-12-30T08:54:20.196Z,65.70
2017-12-30T08:56:23.665Z,66.10
2017-12-30T08:58:27.126Z,67.10
2017-12-30T09:00:31.360Z,66.50
2017-12-30T09:02:34.774Z,66.50
2017-12-30T09:04:38.239Z,66.00
2017-12-30T09:06:41.756Z,66.50
2017-12-30T09:08:46.428Z,66.50
2017-12-30T09:10:49.926Z,66.20
2017-12-30T09:12:53.401Z,66.20
2017-12-30T09:14:56.834Z,66.20
2017-12-30T09:17:00.328Z,66.80
2017-12-30T09:19:04.535Z,67.00
2017-12-30T09:21:09.858Z,67.50
2017-12-30T09:23:14.977Z,66.80
2017-12-30T09:25:18.806Z,66.90
2017-12-30T09:27:22.413Z,67.10
2017-12-30T09:29:25.863Z,67.30
2017-12-30T09:31:29.364Z,67.40
2017-12-30T09:33:33.205Z,67.80
2017-12-30T09:35:39.224Z,68.20
2017-12-30T09:37:43.490Z,67.20
2017-12-30T09:39:47.857Z,67.50
2017-12-30T09:41:51.757Z,67.70
2017-12-30T09:43:55.282Z,67.30
2017-12-30T09:45:58.759Z,67.60
2017-12-30T09:48:02.212Z,68.40
2017-12-30T09:50:05.736Z,67.80
2017-12-30T09:52:09.958Z,67.00
2017-12-30T09:54:14.224Z,67.60
2017-12-30T09:56:18.436Z,67.20
2017-12-30T09:58:21.918Z,68.40
2017-12-30T10:00:25.641Z,65.70
2017-12-30T10:02:30.067Z,65.90
2017-12-30T10:04:33.612Z,66.20
2017-12-30T10:06:37.100Z,68.00
2017-12-30T10:08:41.487Z,66.20
2017-12-30T10:10:44.979Z,66.30
2017-12-30T10:12:48.500Z,67.50
2017-12-30T10:14:52.917Z,68.60
2017-12-30T10:16:56.496Z,68.50
2017-12-30T10:19:02.026Z,68.90
2017-12-30T10:21:05.564Z,69.00
2017-12-30T10:23:10.006Z,69.00
2017-12-30T10:25:13.754Z,69.70
2017-12-30T10:27:17.216Z,69.10
2017-12-30T10:29:20.739Z,68.40
2017-12-30T10:31:24.237Z,68.90
2017-12-30T10:33:27.689Z,68.10
2017-12-30T10:35:31.240Z,74.50
2017-12-30T10:37:35.513Z,68.50
2017-12-30T10:39:39.647Z,68.30
2017-12-30T10:41:43.965Z,69.20
2017-12-30T10:43:47.562Z,68.80
2017-12-30T10:45:51.106Z,68.90
2017-12-30T10:47:54.596Z,70.10
2017-12-30T10:49:58.026Z,70.30
2017-12-30T10:52:01.619Z,70.20
2017-12-30T10:54:05.897Z,71.20
2017-12-30T10:56:09.526Z,71.40
2017-12-30T10:58:13.094Z,72.60
2017-12-30T11:00:18.988Z,69.20
2017-12-30T11:02:22.959Z,69.60
2017-12-30T11:04:27.271Z,69.50
2017-12-30T11:06:31.544Z,70.50
2017-12-30T11:08:35.012Z,70.60
2017-12-30T11:10:38.502Z,72.00
2017-12-30T11:12:42.054Z,71.50
2017-12-30T11:14:47.378Z,71.70
2017-12-30T11:16:50.947Z,72.00
2017-12-30T11:18:58.306Z,71.30
2017-12-30T11:21:01.841Z,71.00
2017-12-30T11:23:05.372Z,71.30
2017-12-30T11:25:10.718Z,71.10
2017-12-30T11:27:15.016Z,71.20
2017-12-30T11:29:18.718Z,70.90
2017-12-30T11:31:22.269Z,69.90
2017-12-30T11:33:25.917Z,69.90
2017-12-30T11:35:30.641Z,70.10
2017-12-30T11:37:34.952Z,70.10
2017-12-30T11:39:38.516Z,70.30
2017-12-30T11:41:44.272Z,70.70
2017-12-30T11:43:49.295Z,69.80
2017-12-30T11:45:53.334Z,69.90
2017-12-30T11:47:56.998Z,69.80
2017-12-30T11:50:02.328Z,69.30
2017-12-30T11:52:11.354Z,69.20
2017-12-30T11:54:18.685Z,69.20
2017-12-30T11:56:23.430Z,69.20
2017-12-30T11:58:26.922Z,69.10
2017-12-30T12:00:30.991Z,68.70
2017-12-30T12:02:34.992Z,67.00
2017-12-30T12:04:39.252Z,65.40
2017-12-30T12:06:43.616Z,60.00
2017-12-30T12:08:47.416Z,59.00
2017-12-30T12:10:51.664Z,59.20
2017-12-30T12:12:59.783Z,58.80
2017-12-30T12:15:04.063Z,60.00
2017-12-30T12:17:07.643Z,60.00
2017-12-30T12:19:11.182Z,60.60
2017-12-30T12:21:15.046Z,62.30
2017-12-30T12:23:19.594Z,61.80
2017-12-30T12:25:23.260Z,61.00
2017-12-30T12:27:27.518Z,60.90
2017-12-30T12:29:30.992Z,61.00
2017-12-30T12:31:34.470Z,60.90
2017-12-30T12:33:38.722Z,59.90
2017-12-30T12:35:42.277Z,60.10
2017-12-30T12:37:46.058Z,59.70
2017-12-30T12:39:49.853Z,60.60
2017-12-30T12:41:53.340Z,62.70
2017-12-30T12:43:56.891Z,59.20
2017-12-30T12:46:00.468Z,60.80
2017-12-30T12:48:04.022Z,61.10
2017-12-30T12:50:07.517Z,58.40
2017-12-30T12:52:11.023Z,58.00
2017-12-30T12:54:14.566Z,57.90
2017-12-30T12:56:18.091Z,57.80
2017-12-30T12:58:21.691Z,58.10
2017-12-30T13:00:25.175Z,58.00
2017-12-30T13:02:28.678Z,58.00
2017-12-30T13:04:33.577Z,56.40
2017-12-30T13:06:37.188Z,55.00
2017-12-30T13:08:40.740Z,55.00
2017-12-30T13:10:44.307Z,55.00
2017-12-30T13:12:47.802Z,55.70
2017-12-30T13:14:52.120Z,55.20
2017-12-30T13:16:55.615Z,55.30
2017-12-30T13:18:59.147Z,54.90
2017-12-30T13:21:02.725Z,55.60
2017-12-30T13:23:07.404Z,55.10
2017-12-30T13:25:12.395Z,55.20
2017-12-30T13:27:16.620Z,54.40
2017-12-30T13:29:20.496Z,52.40
2017-12-30T13:31:24.508Z,54.20
2017-12-30T13:33:29.262Z,53.10
2017-12-30T13:35:32.948Z,53.30
2017-12-30T13:37:36.670Z,52.80
2017-12-30T13:39:40.301Z,52.60
2017-12-30T13:41:43.825Z,53.00
2017-12-30T13:43:49.211Z,52.50
2017-12-30T13:45:53.049Z,52.40
2017-12-30T13:47:56.607Z,51.50
2017-12-30T13:50:00.438Z,51.00
2017-12-30T13:52:05.038Z,49.40
2017-12-30T13:54:10.354Z,49.80
2017-12-30T13:56:14.455Z,50.30
2017-12-30T13:58:18.129Z,46.80
2017-12-30T14:00:22.438Z,47.00
2017-12-30T14:02:26.515Z,46.80
2017-12-30T14:04:30.035Z,45.90
2017-12-30T14:06:34.079Z,47.00
2017-12-30T14:08:37.742Z,47.80
2017-12-30T14:10:41.293Z,46.20
2017-12-30T14:12:45.034Z,45.30
2017-12-30T14:14:48.614Z,46.40
2017-12-30T14:16:52.180Z,46.00
2017-12-30T14:18:57.649Z,44.30
2017-12-30T14:21:01.332Z,44.20
2017-12-30T14:23:05.775Z,44.50
2017-12-30T14:25:10.410Z,43.90
2017-12-30T14:27:14.489Z,43.90
2017-12-30T14:29:18.032Z,43.10
2017-12-30T14:31:22.372Z,44.10
2017-12-30T14:33:25.905Z,43.90
2017-12-30T14:35:29.405Z,44.70
2017-12-30T14:37:32.912Z,45.40
2017-12-30T14:39:36.496Z,44.50
2017-12-30T14:41:40.036Z,43.90
2017-12-30T14:43:44.271Z,43.00
2017-12-30T14:45:47.738Z,42.90
2017-12-30T14:47:51.303Z,42.00
2017-12-30T14:49:54.879Z,42.30
2017-12-30T14:51:59.164Z,41.60
2017-12-30T14:54:02.830Z,41.90
2017-12-30T14:56:06.312Z,42.20
2017-12-30T14:58:09.851Z,41.90
2017-12-30T15:00:13.330Z,41.00
2017-12-30T15:02:16.846Z,41.80
2017-12-30T15:04:21.914Z,41.40
2017-12-30T15:06:25.427Z,41.10
2017-12-30T15:08:28.912Z,42.00
2017-12-30T15:10:32.372Z,41.70
2017-12-30T15:12:35.967Z,40.60
2017-12-30T15:14:39.511Z,40.50
2017-12-30T15:16:43.756Z,42.10
2017-12-30T15:18:47.249Z,42.50
2017-12-30T15:20:51.953Z,41.30
2017-12-30T15:22:56.259Z,42.00
2017-12-30T15:24:59.763Z,41.90
2017-12-30T15:27:03.256Z,42.70
2017-12-30T15:29:06.696Z,41.20
2017-12-30T15:31:10.295Z,41.70
2017-12-30T15:33:13.951Z,42.50
2017-12-30T15:35:17.480Z,42.40
2017-12-30T15:37:20.934Z,42.30
2017-12-30T15:39:25.188Z,41.80
2017-12-30T15:41:28.752Z,41.90
2017-12-30T15:43:33.058Z,41.40
2017-12-30T15:45:37.341Z,40.00
2017-12-30T15:47:40.905Z,39.90
2017-12-30T15:49:44.363Z,40.00
2017-12-30T15:51:48.664Z,40.10
2017-12-30T15:53:52.178Z,39.70
2017-12-30T15:55:56.367Z,41.00
2017-12-30T15:58:01.129Z,40.00
2017-12-30T16:00:05.331Z,40.50
2017-12-30T16:02:09.366Z,41.30
2017-12-30T16:04:13.677Z,41.80
2017-12-30T16:06:17.192Z,41.70
2017-12-30T16:08:20.671Z,41.20
2017-12-30T16:10:24.149Z,40.90
2017-12-30T16:12:28.873Z,41.90
2017-12-30T16:14:32.363Z,41.40
2017-12-30T16:16:35.792Z,40.60
2017-12-30T16:18:39.250Z,40.10
2017-12-30T16:20:42.804Z,40.40
2017-12-30T16:22:47.886Z,40.30
2017-12-30T16:24:51.372Z,41.50
2017-12-30T16:26:54.819Z,41.30
2017-12-30T16:28:58.856Z,41.20
2017-12-30T16:31:02.298Z,41.10
2017-12-30T16:33:05.746Z,41.80
2017-12-30T16:35:10.007Z,42.60
2017-12-30T16:37:15.061Z,43.70
2017-12-30T16:39:19.337Z,43.20
2017-12-30T16:41:23.485Z,43.40
2017-12-30T16:43:27.086Z,43.00
2017-12-30T16:45:30.560Z,43.80
2017-12-30T16:47:34.671Z,45.20
2017-12-30T16:49:38.143Z,44.80
2017-12-30T16:51:42.501Z,43.00
2017-12-30T16:53:46.572Z,43.10
2017-12-30T16:55:50.703Z,44.00
2017-12-30T16:57:54.160Z,43.10
2017-12-30T16:59:57.641Z,43.70
2017-12-30T17:02:01.902Z,44.60
2017-12-30T17:04:06.681Z,44.90
2017-12-30T17:06:10.916Z,44.40
2017-12-30T17:08:14.488Z,44.40
2017-12-30T17:10:18.801Z,45.90
2017-12-30T17:12:23.294Z,47.20
2017-12-30T17:14:28.831Z,47.20
2017-12-30T17:16:33.103Z,45.90
2017-12-30T17:18:36.577Z,46.20
2017-12-30T17:20:40.861Z,45.20
2017-12-30T17:22:45.072Z,47.50
2017-12-30T17:24:48.519Z,47.40
2017-12-30T17:26:52.022Z,47.10
2017-12-30T17:28:55.443Z,47.30
2017-12-30T17:30:59.729Z,47.60
2017-12-30T17:33:03.161Z,47.30
2017-12-30T17:35:08.488Z,51.40
2017-12-30T17:37:12.750Z,53.90
2017-12-30T17:39:16.201Z,53.70
2017-12-30T17:41:20.475Z,58.10
2017-12-30T17:43:23.902Z,58.40
2017-12-30T17:45:27.412Z,59.40
2017-12-30T17:47:30.896Z,61.00
2017-12-30T17:49:34.393Z,61.20
2017-12-30T17:51:37.994Z,62.80
2017-12-30T17:53:42.078Z,63.00
2017-12-30T17:55:45.642Z,63.80
2017-12-30T17:57:49.099Z,64.40
2017-12-30T17:59:53.302Z,66.70
2017-12-30T18:01:56.739Z,66.70
2017-12-30T18:04:01.080Z,66.60
2017-12-30T18:06:04.512Z,66.70
2017-12-30T18:08:08.104Z,66.60
2017-12-30T18:10:12.408Z,67.30
2017-12-30T18:12:15.968Z,67.70
2017-12-30T18:14:20.334Z,69.30
2017-12-30T18:16:25.480Z,69.30
2017-12-30T18:18:29.578Z,68.60
2017-12-30T18:20:33.794Z,68.30
2017-12-30T18:22:37.995Z,68.30
2017-12-30T18:24:42.491Z,69.60
2017-12-30T18:26:46.223Z,69.40
2017-12-30T18:28:51.263Z,71.30
2017-12-30T18:30:54.853Z,70.80
2017-12-30T18:32:59.835Z,70.60
2017-12-30T18:35:04.212Z,70.30
2017-12-30T18:37:07.759Z,70.20
2017-12-30T18:39:11.294Z,71.00
2017-12-30T18:41:15.930Z,71.30
2017-12-30T18:43:21.077Z,71.40
2017-12-30T18:45:25.764Z,70.30
2017-12-30T18:47:29.350Z,70.20
2017-12-30T18:49:34.413Z,72.50
2017-12-30T18:51:38.224Z,72.60
2017-12-30T18:53:43.242Z,72.70
2017-12-30T18:55:46.854Z,72.60
2017-12-30T18:57:50.661Z,72.10
2017-12-30T18:59:54.139Z,72.10
2017-12-30T19:01:58.460Z,72.70
2017-12-30T19:04:03.170Z,72.60
2017-12-30T19:06:06.783Z,72.70
2017-12-30T19:08:10.377Z,72.10
2017-12-30T19:10:14.104Z,72.60
2017-12-30T19:12:19.318Z,71.40
2017-12-30T19:14:25.242Z,71.40
2017-12-30T19:16:30.528Z,73.10
2017-12-30T19:18:35.991Z,72.80
2017-12-30T19:20:40.890Z,72.30
2017-12-30T19:22:44.976Z,72.70
2017-12-30T19:24:49.336Z,72.70
2017-12-30T19:26:53.628Z,71.50
2017-12-30T19:28:57.130Z,71.50
2017-12-30T19:31:01.377Z,72.50
2017-12-30T19:33:05.707Z,72.80
2017-12-30T19:35:09.947Z,71.80
2017-12-30T19:37:13.433Z,72.10
2017-12-30T19:39:16.924Z,71.70
2017-12-30T19:41:20.373Z,71.40
2017-12-30T19:43:24.007Z,69.60
2017-12-30T19:45:28.424Z,69.80
2017-12-30T19:47:33.134Z,70.00
2017-12-30T19:49:36.856Z,70.80
2017-12-30T19:51:40.792Z,70.90
2017-12-30T19:53:44.430Z,69.80
2017-12-30T19:55:47.854Z,69.70
2017-12-30T19:57:51.470Z,69.80
2017-12-30T19:59:55.187Z,68.30
2017-12-30T20:01:59.595Z,67.80
2017-12-30T20:04:03.241Z,67.20
2017-12-30T20:06:08.408Z,66.50
2017-12-30T20:08:11.986Z,66.60
2017-12-30T20:10:15.505Z,67.10
2017-12-30T20:12:19.079Z,66.90
2017-12-30T20:14:22.561Z,67.60
2017-12-30T20:16:27.643Z,66.80
2017-12-30T20:18:31.138Z,67.00
2017-12-30T20:20:34.618Z,66.70
2017-12-30T20:22:38.516Z,67.00
2017-12-30T20:24:43.266Z,68.00
2017-12-30T20:26:46.915Z,67.90
2017-12-30T20:28:51.333Z,68.20
2017-12-30T20:30:55.543Z,68.10
2017-12-30T20:32:59.786Z,69.10
2017-12-30T20:35:05.211Z,69.40
2017-12-30T20:37:09.202Z,69.40
2017-12-30T20:39:14.129Z,69.30
2017-12-30T20:41:17.690Z,69.70
2017-12-30T20:43:21.174Z,69.90
2017-12-30T20:45:24.839Z,70.00
2017-12-30T20:47:28.863Z,69.30
2017-12-30T20:49:32.803Z,69.80
2017-12-30T20:51:36.336Z,69.20
2017-12-30T20:53:39.797Z,71.70
2017-12-30T20:55:43.275Z,71.30
2017-12-30T20:57:46.721Z,70.80
2017-12-30T20:59:50.194Z,71.10
2017-12-30T21:01:53.696Z,71.60
2017-12-30T21:03:58.282Z,71.30
2017-12-30T21:06:01.776Z,71.30
2017-12-30T21:08:05.930Z,71.20
2017-12-30T21:10:09.607Z,70.50
2017-12-30T21:12:14.161Z,70.70
2017-12-30T21:14:18.026Z,70.20
2017-12-30T21:16:21.561Z,70.80
2017-12-30T21:18:25.458Z,71.20
2017-12-30T21:20:29.334Z,70.80
2017-12-30T21:22:33.581Z,71.20
2017-12-30T21:24:37.024Z,71.20
2017-12-30T21:26:41.178Z,70.40
2017-12-30T21:28:45.513Z,71.20
2017-12-30T21:30:49.268Z,69.00
2017-12-30T21:32:52.925Z,69.20
2017-12-30T21:34:56.639Z,69.50
2017-12-30T21:37:00.240Z,69.40
2017-12-30T21:39:03.805Z,69.60
2017-12-30T21:41:07.332Z,69.20
2017-12-30T21:43:11.987Z,69.90
2017-12-30T21:45:15.534Z,69.80
2017-12-30T21:47:20.552Z,69.90
2017-12-30T21:49:25.016Z,71.60
2017-12-30T21:51:29.421Z,69.80
2017-12-30T21:53:33.701Z,70.20
2017-12-30T21:55:37.146Z,70.60
2017-12-30T21:57:41.389Z,70.80
2017-12-30T21:59:45.061Z,70.60
2017-12-30T22:01:52.359Z,70.70
2017-12-30T22:03:58.613Z,71.30
2017-12-30T22:06:02.614Z,71.00
2017-12-30T22:08:06.897Z,71.20
2017-12-30T22:10:10.943Z,71.10
2017-12-30T22:12:14.812Z,73.10
2017-12-30T22:14:18.554Z,73.00
2017-12-30T22:16:23.915Z,72.10
2017-12-30T22:18:28.266Z,73.00
2017-12-30T22:20:31.899Z,72.30
2017-12-30T22:22:35.528Z,73.00
2017-12-30T22:24:39.065Z,73.40
2017-12-30T22:26:43.074Z,72.60
2017-12-30T22:28:46.798Z,73.10
2017-12-30T22:30:51.183Z,71.10
2017-12-30T22:32:55.723Z,71.10
2017-12-30T22:35:00.166Z,71.80
2017-12-30T22:37:03.620Z,71.90
2017-12-30T22:39:07.151Z,73.20
2017-12-30T22:41:10.591Z,73.40
2017-12-30T22:43:14.389Z,73.20
2017-12-30T22:45:17.894Z,72.40
2017-12-30T22:47:21.385Z,72.90
2017-12-30T22:49:24.917Z,73.10
2017-12-30T22:51:29.224Z,74.30
2017-12-30T22:53:33.342Z,74.20
2017-12-30T22:55:37.698Z,74.00
2017-12-30T22:57:41.572Z,74.20
2017-12-30T22:59:45.687Z,73.50
2017-12-30T23:01:49.128Z,73.30
2017-12-30T23:03:52.556Z,72.70
2017-12-30T23:05:56.194Z,72.60
2017-12-30T23:07:59.659Z,71.90
2017-12-30T23:10:03.201Z,73.00
2017-12-30T23:12:07.601Z,71.70
2017-12-30T23:14:11.067Z,73.30
2017-12-30T23:16:14.786Z,73.30
2017-12-30T23:18:18.562Z,72.20
2017-12-30T23:20:23.076Z,73.50
2017-12-30T23:22:26.768Z,73.40
2017-12-30T23:24:30.474Z,74.00
2017-12-30T23:26:37.222Z,73.70
2017-12-30T23:28:42.175Z,73.70
2017-12-30T23:30:46.056Z,73.90
2017-12-30T23:32:50.471Z,73.90
2017-12-30T23:34:54.750Z,73.60
2017-12-30T23:36:58.635Z,73.40
2017-12-30T23:39:02.851Z,73.30
2017-12-30T23:41:06.731Z,73.30
2017-12-30T23:43:11.068Z,73.40
2017-12-30T23:45:14.666Z,73.20
2017-12-30T23:47:18.995Z,72.40
2017-12-30T23:49:23.049Z,72.20
2017-12-30T23:51:27.383Z,73.00
2017-12-30T23:53:31.658Z,72.80
2017-12-30T23:55:35.098Z,72.30
2017-12-30T23:57:38.521Z,72.20
2017-12-30T23:59:42.029Z,71.70
